Easterwood Field
KCLL : now visible

Airfield :











YOU CAN JOIN US ON...

 
LOGIN :

Register | Disclaimer

   EN    FR    IT 

 









Legend :    VFR   Marginal VFR   IFR   Intensive IFR   Very Intensive IFR
Visi :
Ceiling :
>= 8 km
>= 3000ft
5 to 8 km
1000 to 3000 ft
1500m to 5 km
500 to 1000 ft
800 to 1500m
200 to 500 ft
< 800m
< 200 ft
Symbols :   Thunderstorms  Fog  Heavy snow  Heavy precipitations  Wind > 20 kt






- Airport Elevation : 320 ft
- IATA code : CLL


KCLL - Easterwood Field

CURRENT METAR :
  • 201753Z 10SM SCT037 29/19 A3001 RMK AO2 SLP157 T02940189 10300 20233 58011

EXPIRED METARs :
  • 201653Z 14009KT 10SM SCT025 28/19 A3004 RMK AO2 SLP167 T02830194
  • 201553Z 20006KT 10SM SCT025 27/21 A3004 RMK AO2 SLP169 T02720211
  • 201453Z 17010KT 10SM SCT013 25/22 A3005 RMK AO2 SLP170 T02500217 53007

TAF KCLL
Valid from the 20 at 18:00 until the 21 at 18:00 UTC


201732Z 2018/2118 15009KT P6SM SCT025 SCT035
FM210800 VRB04KT 6SM BR SCT020 BKN030
FM211200 VRB03KT 6SM BR SCT006 BKN030
FM211400 VRB03KT P6SM SCT007 BKN029
FM211600 VRB04KT P6SM FEW027 SCT035
KZHU FIR / North America



MET'MAP, your aeronautical weather chart ! - Copyright ORBIFLY December 2007 - Disclaimer

ORBIFLY MET'MAP TEAM :

Programming & Development : Alexandra Zaïnal
Concept & original design : Baudouin d'Aumeries
Assistance for programming : Marc-Olivier Méhu
Technical & hardware support : Manuel Goepfert

Contact : metmap@orbifly.com




SOURCES & CREDITS :

   NOAA       Earth
Advisory